sensor_id;sensor_type;location;lat;lon;timestamp;P1;durP1;ratioP1;P2;durP2;ratioP2
34471;SDS011;20710;49.976;19.836;2023-02-15T00:03:48;126.00;;;68.90;;
34471;SDS011;20710;49.976;19.836;2023-02-15T00:09:50;139.10;;;69.50;;
34471;SDS011;20710;49.976;19.836;2023-02-15T00:15:52;132.80;;;66.70;;
34471;SDS011;20710;49.976;19.836;2023-02-15T00:21:56;135.00;;;66.90;;
34471;SDS011;20710;49.976;19.836;2023-02-15T00:27:59;115.10;;;58.10;;
34471;SDS011;20710;49.976;19.836;2023-02-15T00:34:07;122.00;;;60.40;;
34471;SDS011;20710;49.976;19.836;2023-02-15T00:40:14;111.50;;;58.10;;
34471;SDS011;20710;49.976;19.836;2023-02-15T00:46:16;110.80;;;58.60;;
34471;SDS011;20710;49.976;19.836;2023-02-15T00:52:18;119.60;;;62.10;;
34471;SDS011;20710;49.976;19.836;2023-02-15T00:58:20;120.10;;;59.60;;
34471;SDS011;20710;49.976;19.836;2023-02-15T01:04:22;54.10;;;29.90;;
34471;SDS011;20710;49.976;19.836;2023-02-15T01:10:25;37.80;;;20.90;;
34471;SDS011;20710;49.976;19.836;2023-02-15T01:16:30;72.60;;;36.60;;
34471;SDS011;20710;49.976;19.836;2023-02-15T01:22:34;39.50;;;21.70;;
34471;SDS011;20710;49.976;19.836;2023-02-15T01:28:36;51.00;;;25.70;;
34471;SDS011;20710;49.976;19.836;2023-02-15T01:34:38;34.20;;;19.00;;
34471;SDS011;20710;49.976;19.836;2023-02-15T01:40:41;36.30;;;20.20;;
34471;SDS011;20710;49.976;19.836;2023-02-15T01:46:45;43.40;;;23.60;;
34471;SDS011;20710;49.976;19.836;2023-02-15T01:53:13;45.20;;;23.90;;
34471;SDS011;20710;49.976;19.836;2023-02-15T01:59:23;37.40;;;20.50;;
34471;SDS011;20710;49.976;19.836;2023-02-15T02:05:26;38.90;;;22.70;;
34471;SDS011;20710;49.976;19.836;2023-02-15T02:11:29;44.30;;;21.80;;
34471;SDS011;20710;49.976;19.836;2023-02-15T02:17:53;46.00;;;23.80;;
34471;SDS011;20710;49.976;19.836;2023-02-15T02:30:33;43.60;;;23.30;;
34471;SDS011;20710;49.976;19.836;2023-02-15T02:36:43;40.80;;;21.60;;
34471;SDS011;20710;49.976;19.836;2023-02-15T02:43:01;45.30;;;23.20;;
34471;SDS011;20710;49.976;19.836;2023-02-15T02:49:08;50.90;;;23.80;;
34471;SDS011;20710;49.976;19.836;2023-02-15T03:08:35;40.50;;;22.30;;
34471;SDS011;20710;49.976;19.836;2023-02-15T03:14:43;42.90;;;22.60;;
34471;SDS011;20710;49.976;19.836;2023-02-15T03:20:46;43.00;;;22.40;;
34471;SDS011;20710;49.976;19.836;2023-02-15T03:26:50;40.70;;;23.40;;
34471;SDS011;20710;49.976;19.836;2023-02-15T03:32:53;39.40;;;22.20;;
34471;SDS011;20710;49.976;19.836;2023-02-15T03:38:59;46.00;;;22.10;;
34471;SDS011;20710;49.976;19.836;2023-02-15T03:51:20;43.30;;;22.40;;
34471;SDS011;20710;49.976;19.836;2023-02-15T03:57:36;48.70;;;24.20;;
34471;SDS011;20710;49.976;19.836;2023-02-15T04:04:01;43.20;;;23.50;;
34471;SDS011;20710;49.976;19.836;2023-02-15T04:10:11;45.40;;;24.50;;
34471;SDS011;20710;49.976;19.836;2023-02-15T04:16:32;41.50;;;23.80;;
34471;SDS011;20710;49.976;19.836;2023-02-15T04:22:34;41.10;;;25.30;;
34471;SDS011;20710;49.976;19.836;2023-02-15T04:28:54;49.90;;;25.80;;
34471;SDS011;20710;49.976;19.836;2023-02-15T04:34:56;49.40;;;25.40;;
34471;SDS011;20710;49.976;19.836;2023-02-15T04:40:58;51.70;;;28.00;;
34471;SDS011;20710;49.976;19.836;2023-02-15T04:47:00;49.10;;;27.90;;
34471;SDS011;20710;49.976;19.836;2023-02-15T04:53:02;53.70;;;28.20;;
34471;SDS011;20710;49.976;19.836;2023-02-15T04:59:04;49.90;;;25.90;;
34471;SDS011;20710;49.976;19.836;2023-02-15T05:05:09;45.80;;;23.20;;
34471;SDS011;20710;49.976;19.836;2023-02-15T05:11:14;43.20;;;24.20;;
34471;SDS011;20710;49.976;19.836;2023-02-15T05:17:16;39.10;;;22.00;;
34471;SDS011;20710;49.976;19.836;2023-02-15T05:23:18;39.40;;;22.60;;
34471;SDS011;20710;49.976;19.836;2023-02-15T05:29:20;42.70;;;21.80;;
34471;SDS011;20710;49.976;19.836;2023-02-15T05:35:22;40.70;;;22.20;;
34471;SDS011;20710;49.976;19.836;2023-02-15T05:41:24;36.80;;;20.50;;
34471;SDS011;20710;49.976;19.836;2023-02-15T05:47:26;38.10;;;21.80;;
34471;SDS011;20710;49.976;19.836;2023-02-15T05:53:29;39.90;;;21.00;;
34471;SDS011;20710;49.976;19.836;2023-02-15T05:59:32;37.70;;;21.90;;
34471;SDS011;20710;49.976;19.836;2023-02-15T06:05:34;39.20;;;21.20;;
34471;SDS011;20710;49.976;19.836;2023-02-15T06:11:36;45.30;;;20.60;;
34471;SDS011;20710;49.976;19.836;2023-02-15T06:17:37;37.40;;;20.10;;
34471;SDS011;20710;49.976;19.836;2023-02-15T06:23:39;37.10;;;20.50;;
34471;SDS011;20710;49.976;19.836;2023-02-15T06:29:42;36.40;;;20.00;;
34471;SDS011;20710;49.976;19.836;2023-02-15T06:35:46;44.70;;;21.40;;
34471;SDS011;20710;49.976;19.836;2023-02-15T06:41:49;36.70;;;20.00;;
34471;SDS011;20710;49.976;19.836;2023-02-15T06:47:51;35.40;;;19.20;;
34471;SDS011;20710;49.976;19.836;2023-02-15T06:53:53;42.30;;;21.40;;
34471;SDS011;20710;49.976;19.836;2023-02-15T06:59:55;36.60;;;19.40;;
34471;SDS011;20710;49.976;19.836;2023-02-15T07:06:00;35.70;;;19.40;;
34471;SDS011;20710;49.976;19.836;2023-02-15T07:12:03;34.50;;;19.40;;
34471;SDS011;20710;49.976;19.836;2023-02-15T07:18:24;35.40;;;20.00;;
34471;SDS011;20710;49.976;19.836;2023-02-15T07:24:29;36.40;;;21.10;;
34471;SDS011;20710;49.976;19.836;2023-02-15T07:30:31;32.40;;;17.80;;
34471;SDS011;20710;49.976;19.836;2023-02-15T07:36:32;37.40;;;19.00;;
34471;SDS011;20710;49.976;19.836;2023-02-15T07:42:35;34.40;;;17.20;;
34471;SDS011;20710;49.976;19.836;2023-02-15T07:48:37;37.00;;;19.40;;
34471;SDS011;20710;49.976;19.836;2023-02-15T07:54:40;32.20;;;18.20;;
34471;SDS011;20710;49.976;19.836;2023-02-15T08:00:42;29.90;;;17.30;;
34471;SDS011;20710;49.976;19.836;2023-02-15T08:06:59;27.90;;;16.10;;
34471;SDS011;20710;49.976;19.836;2023-02-15T08:13:01;24.20;;;15.30;;
34471;SDS011;20710;49.976;19.836;2023-02-15T08:19:04;24.90;;;15.40;;
34471;SDS011;20710;49.976;19.836;2023-02-15T08:25:08;27.10;;;15.40;;
34471;SDS011;20710;49.976;19.836;2023-02-15T08:31:10;26.40;;;16.30;;
34471;SDS011;20710;49.976;19.836;2023-02-15T08:37:13;29.40;;;16.90;;
34471;SDS011;20710;49.976;19.836;2023-02-15T08:43:16;28.50;;;17.00;;
34471;SDS011;20710;49.976;19.836;2023-02-15T08:49:19;27.20;;;15.80;;
34471;SDS011;20710;49.976;19.836;2023-02-15T08:55:22;26.40;;;16.10;;
34471;SDS011;20710;49.976;19.836;2023-02-15T09:01:25;27.00;;;17.00;;
34471;SDS011;20710;49.976;19.836;2023-02-15T09:07:29;27.80;;;17.20;;
34471;SDS011;20710;49.976;19.836;2023-02-15T09:13:31;24.50;;;15.80;;
34471;SDS011;20710;49.976;19.836;2023-02-15T09:19:33;24.40;;;16.60;;
34471;SDS011;20710;49.976;19.836;2023-02-15T09:25:36;24.60;;;15.00;;
34471;SDS011;20710;49.976;19.836;2023-02-15T09:31:48;23.90;;;15.50;;
34471;SDS011;20710;49.976;19.836;2023-02-15T09:37:51;21.40;;;14.40;;
34471;SDS011;20710;49.976;19.836;2023-02-15T09:44:38;20.90;;;14.60;;
34471;SDS011;20710;49.976;19.836;2023-02-15T10:03:12;20.70;;;14.60;;
34471;SDS011;20710;49.976;19.836;2023-02-15T10:15:43;21.50;;;14.50;;
34471;SDS011;20710;49.976;19.836;2023-02-15T10:29:00;20.70;;;14.40;;
34471;SDS011;20710;49.976;19.836;2023-02-15T10:41:33;20.40;;;14.50;;
34471;SDS011;20710;49.976;19.836;2023-02-15T10:48:01;21.20;;;13.80;;
34471;SDS011;20710;49.976;19.836;2023-02-15T11:00:39;21.60;;;14.40;;
34471;SDS011;20710;49.976;19.836;2023-02-15T11:06:48;24.10;;;15.80;;
34471;SDS011;20710;49.976;19.836;2023-02-15T11:12:57;24.00;;;15.90;;
34471;SDS011;20710;49.976;19.836;2023-02-15T11:25:24;23.60;;;15.50;;
34471;SDS011;20710;49.976;19.836;2023-02-15T11:31:34;23.80;;;16.40;;
34471;SDS011;20710;49.976;19.836;2023-02-15T11:37:46;24.40;;;16.20;;
34471;SDS011;20710;49.976;19.836;2023-02-15T11:50:30;23.10;;;16.00;;
34471;SDS011;20710;49.976;19.836;2023-02-15T11:56:33;25.80;;;17.40;;
34471;SDS011;20710;49.976;19.836;2023-02-15T12:02:37;27.10;;;18.20;;
34471;SDS011;20710;49.976;19.836;2023-02-15T12:08:40;29.60;;;18.60;;
34471;SDS011;20710;49.976;19.836;2023-02-15T12:15:03;28.00;;;17.90;;
34471;SDS011;20710;49.976;19.836;2023-02-15T12:21:09;30.40;;;17.90;;
34471;SDS011;20710;49.976;19.836;2023-02-15T12:27:15;26.00;;;17.00;;
34471;SDS011;20710;49.976;19.836;2023-02-15T12:33:25;31.90;;;19.40;;
34471;SDS011;20710;49.976;19.836;2023-02-15T12:47:19;27.70;;;19.30;;
34471;SDS011;20710;49.976;19.836;2023-02-15T13:00:27;28.70;;;19.10;;
34471;SDS011;20710;49.976;19.836;2023-02-15T13:06:31;31.30;;;20.40;;
34471;SDS011;20710;49.976;19.836;2023-02-15T13:12:36;35.10;;;21.70;;
34471;SDS011;20710;49.976;19.836;2023-02-15T13:18:38;33.40;;;22.00;;
34471;SDS011;20710;49.976;19.836;2023-02-15T13:24:47;34.80;;;20.80;;
34471;SDS011;20710;49.976;19.836;2023-02-15T13:30:50;36.10;;;22.80;;
34471;SDS011;20710;49.976;19.836;2023-02-15T13:37:01;38.00;;;22.10;;
34471;SDS011;20710;49.976;19.836;2023-02-15T13:43:20;36.30;;;21.30;;
34471;SDS011;20710;49.976;19.836;2023-02-15T14:21:14;41.50;;;23.30;;
34471;SDS011;20710;49.976;19.836;2023-02-15T14:33:55;43.70;;;25.80;;
34471;SDS011;20710;49.976;19.836;2023-02-15T14:40:00;43.20;;;24.50;;
34471;SDS011;20710;49.976;19.836;2023-02-15T14:46:31;43.00;;;23.30;;
34471;SDS011;20710;49.976;19.836;2023-02-15T14:52:59;40.80;;;23.30;;
34471;SDS011;20710;49.976;19.836;2023-02-15T14:59:19;41.30;;;24.30;;
34471;SDS011;20710;49.976;19.836;2023-02-15T15:05:29;40.30;;;24.90;;
34471;SDS011;20710;49.976;19.836;2023-02-15T15:11:44;42.10;;;25.50;;
34471;SDS011;20710;49.976;19.836;2023-02-15T15:18:02;45.90;;;24.80;;
34471;SDS011;20710;49.976;19.836;2023-02-15T15:24:06;43.60;;;23.80;;
34471;SDS011;20710;49.976;19.836;2023-02-15T15:36:22;43.60;;;24.00;;
34471;SDS011;20710;49.976;19.836;2023-02-15T15:48:53;55.40;;;27.60;;
34471;SDS011;20710;49.976;19.836;2023-02-15T15:54:56;53.60;;;28.70;;
34471;SDS011;20710;49.976;19.836;2023-02-15T16:01:07;46.80;;;25.80;;
34471;SDS011;20710;49.976;19.836;2023-02-15T16:13:20;53.50;;;27.70;;
34471;SDS011;20710;49.976;19.836;2023-02-15T16:19:24;54.80;;;29.80;;
34471;SDS011;20710;49.976;19.836;2023-02-15T16:25:35;61.90;;;30.70;;
34471;SDS011;20710;49.976;19.836;2023-02-15T16:32:19;70.20;;;31.30;;
34471;SDS011;20710;49.976;19.836;2023-02-15T16:44:43;63.40;;;31.80;;
34471;SDS011;20710;49.976;19.836;2023-02-15T16:50:48;60.20;;;31.30;;
34471;SDS011;20710;49.976;19.836;2023-02-15T16:56:51;64.40;;;29.90;;
34471;SDS011;20710;49.976;19.836;2023-02-15T17:02:54;65.20;;;31.80;;
34471;SDS011;20710;49.976;19.836;2023-02-15T17:09:03;66.30;;;33.60;;
34471;SDS011;20710;49.976;19.836;2023-02-15T17:15:23;71.90;;;34.40;;
34471;SDS011;20710;49.976;19.836;2023-02-15T17:21:30;77.70;;;39.10;;
34471;SDS011;20710;49.976;19.836;2023-02-15T17:27:34;85.60;;;40.10;;
34471;SDS011;20710;49.976;19.836;2023-02-15T17:33:37;92.50;;;43.70;;
34471;SDS011;20710;49.976;19.836;2023-02-15T17:39:42;91.10;;;46.20;;
34471;SDS011;20710;49.976;19.836;2023-02-15T17:45:47;104.00;;;52.90;;
34471;SDS011;20710;49.976;19.836;2023-02-15T17:51:49;127.50;;;60.40;;
34471;SDS011;20710;49.976;19.836;2023-02-15T17:57:51;155.30;;;68.90;;
34471;SDS011;20710;49.976;19.836;2023-02-15T18:03:53;143.70;;;63.90;;
34471;SDS011;20710;49.976;19.836;2023-02-15T18:10:13;139.50;;;65.50;;
34471;SDS011;20710;49.976;19.836;2023-02-15T18:16:37;138.50;;;63.50;;
34471;SDS011;20710;49.976;19.836;2023-02-15T18:22:43;131.80;;;60.40;;
34471;SDS011;20710;49.976;19.836;2023-02-15T18:28:47;133.00;;;61.70;;
34471;SDS011;20710;49.976;19.836;2023-02-15T18:34:49;126.30;;;57.30;;
34471;SDS011;20710;49.976;19.836;2023-02-15T18:40:54;109.40;;;52.30;;
34471;SDS011;20710;49.976;19.836;2023-02-15T18:46:56;115.50;;;54.30;;
34471;SDS011;20710;49.976;19.836;2023-02-15T18:52:58;129.30;;;58.30;;
34471;SDS011;20710;49.976;19.836;2023-02-15T18:59:00;130.50;;;56.00;;
34471;SDS011;20710;49.976;19.836;2023-02-15T19:05:01;127.10;;;55.40;;
34471;SDS011;20710;49.976;19.836;2023-02-15T19:11:03;130.80;;;59.10;;
34471;SDS011;20710;49.976;19.836;2023-02-15T19:17:10;111.60;;;48.20;;
34471;SDS011;20710;49.976;19.836;2023-02-15T19:23:18;108.90;;;47.80;;
34471;SDS011;20710;49.976;19.836;2023-02-15T19:29:25;127.30;;;53.50;;
34471;SDS011;20710;49.976;19.836;2023-02-15T19:35:28;117.70;;;50.10;;
34471;SDS011;20710;49.976;19.836;2023-02-15T19:41:32;89.70;;;41.40;;
34471;SDS011;20710;49.976;19.836;2023-02-15T19:47:34;107.30;;;49.20;;
34471;SDS011;20710;49.976;19.836;2023-02-15T19:53:36;111.10;;;47.90;;
34471;SDS011;20710;49.976;19.836;2023-02-15T19:59:38;118.20;;;52.30;;
34471;SDS011;20710;49.976;19.836;2023-02-15T20:05:41;132.30;;;57.60;;
34471;SDS011;20710;49.976;19.836;2023-02-15T20:11:43;117.50;;;52.50;;
34471;SDS011;20710;49.976;19.836;2023-02-15T20:17:45;108.40;;;50.10;;
34471;SDS011;20710;49.976;19.836;2023-02-15T20:23:47;114.20;;;50.70;;
34471;SDS011;20710;49.976;19.836;2023-02-15T20:29:49;103.90;;;46.40;;
34471;SDS011;20710;49.976;19.836;2023-02-15T20:35:51;115.80;;;51.40;;
34471;SDS011;20710;49.976;19.836;2023-02-15T20:41:53;150.90;;;70.50;;
34471;SDS011;20710;49.976;19.836;2023-02-15T20:47:54;165.80;;;78.10;;
34471;SDS011;20710;49.976;19.836;2023-02-15T20:53:56;164.30;;;77.50;;
34471;SDS011;20710;49.976;19.836;2023-02-15T20:59:58;122.00;;;60.40;;
34471;SDS011;20710;49.976;19.836;2023-02-15T21:06:08;144.70;;;67.60;;
34471;SDS011;20710;49.976;19.836;2023-02-15T21:12:13;185.60;;;84.20;;
34471;SDS011;20710;49.976;19.836;2023-02-15T21:18:18;160.10;;;74.60;;
34471;SDS011;20710;49.976;19.836;2023-02-15T21:24:23;145.80;;;70.40;;
34471;SDS011;20710;49.976;19.836;2023-02-15T21:30:30;130.50;;;64.50;;
34471;SDS011;20710;49.976;19.836;2023-02-15T21:36:32;119.50;;;55.90;;
34471;SDS011;20710;49.976;19.836;2023-02-15T21:42:34;127.20;;;61.20;;
34471;SDS011;20710;49.976;19.836;2023-02-15T21:48:55;155.10;;;73.60;;
34471;SDS011;20710;49.976;19.836;2023-02-15T21:54:56;167.70;;;77.30;;
34471;SDS011;20710;49.976;19.836;2023-02-15T22:00:58;189.50;;;87.20;;
34471;SDS011;20710;49.976;19.836;2023-02-15T22:07:01;172.90;;;83.30;;
34471;SDS011;20710;49.976;19.836;2023-02-15T22:13:03;202.80;;;91.90;;
34471;SDS011;20710;49.976;19.836;2023-02-15T22:19:07;219.10;;;99.00;;
34471;SDS011;20710;49.976;19.836;2023-02-15T22:31:20;214.80;;;98.30;;
34471;SDS011;20710;49.976;19.836;2023-02-15T22:37:22;184.20;;;85.80;;
34471;SDS011;20710;49.976;19.836;2023-02-15T22:43:35;217.30;;;100.80;;
34471;SDS011;20710;49.976;19.836;2023-02-15T22:49:38;211.60;;;100.00;;
34471;SDS011;20710;49.976;19.836;2023-02-15T22:55:40;197.40;;;90.50;;
34471;SDS011;20710;49.976;19.836;2023-02-15T23:01:42;177.20;;;86.00;;
34471;SDS011;20710;49.976;19.836;2023-02-15T23:07:44;191.90;;;88.60;;
34471;SDS011;20710;49.976;19.836;2023-02-15T23:13:47;167.40;;;82.10;;
34471;SDS011;20710;49.976;19.836;2023-02-15T23:19:50;193.60;;;89.00;;
34471;SDS011;20710;49.976;19.836;2023-02-15T23:25:52;167.50;;;80.10;;
34471;SDS011;20710;49.976;19.836;2023-02-15T23:31:53;160.60;;;75.10;;
34471;SDS011;20710;49.976;19.836;2023-02-15T23:37:55;156.00;;;72.30;;
34471;SDS011;20710;49.976;19.836;2023-02-15T23:43:58;147.80;;;69.70;;
34471;SDS011;20710;49.976;19.836;2023-02-15T23:50:01;177.30;;;78.40;;
34471;SDS011;20710;49.976;19.836;2023-02-15T23:56:02;156.50;;;75.60;;
